sensor_id;sensor_type;location;lat;lon;timestamp;P1;durP1;ratioP1;P2;durP2;ratioP2
38399;SDS011;24180;42.676;23.320;2022-08-20T00:00:41;9.43;;;8.60;;
38399;SDS011;24180;42.676;23.320;2022-08-20T00:03:25;10.10;;;9.23;;
38399;SDS011;24180;42.676;23.320;2022-08-20T00:05:57;10.15;;;9.15;;
38399;SDS011;24180;42.676;23.320;2022-08-20T00:08:24;10.35;;;9.25;;
38399;SDS011;24180;42.676;23.320;2022-08-20T00:10:51;10.98;;;9.90;;
38399;SDS011;24180;42.676;23.320;2022-08-20T00:13:20;12.55;;;9.45;;
38399;SDS011;24180;42.676;23.320;2022-08-20T00:15:57;10.40;;;9.43;;
38399;SDS011;24180;42.676;23.320;2022-08-20T00:18:23;10.52;;;9.48;;
38399;SDS011;24180;42.676;23.320;2022-08-20T00:20:51;10.75;;;9.85;;
38399;SDS011;24180;42.676;23.320;2022-08-20T00:23:18;12.40;;;9.98;;
38399;SDS011;24180;42.676;23.320;2022-08-20T00:25:44;10.98;;;10.07;;
38399;SDS011;24180;42.676;23.320;2022-08-20T00:28:13;10.57;;;9.68;;
38399;SDS011;24180;42.676;23.320;2022-08-20T00:30:40;11.95;;;10.55;;
38399;SDS011;24180;42.676;23.320;2022-08-20T00:33:09;11.95;;;10.82;;
38399;SDS011;24180;42.676;23.320;2022-08-20T00:35:38;11.95;;;10.95;;
38399;SDS011;24180;42.676;23.320;2022-08-20T00:38:06;10.93;;;9.93;;
38399;SDS011;24180;42.676;23.320;2022-08-20T00:40:33;11.20;;;9.88;;
38399;SDS011;24180;42.676;23.320;2022-08-20T00:43:03;11.50;;;10.50;;
38399;SDS011;24180;42.676;23.320;2022-08-20T00:45:31;10.93;;;9.77;;
38399;SDS011;24180;42.676;23.320;2022-08-20T00:47:58;10.02;;;9.23;;
38399;SDS011;24180;42.676;23.320;2022-08-20T00:50:31;12.80;;;9.50;;
38399;SDS011;24180;42.676;23.320;2022-08-20T00:53:00;10.27;;;9.27;;
38399;SDS011;24180;42.676;23.320;2022-08-20T00:55:29;10.75;;;9.95;;
38399;SDS011;24180;42.676;23.320;2022-08-20T00:57:57;11.52;;;10.40;;
38399;SDS011;24180;42.676;23.320;2022-08-20T01:00:30;11.20;;;10.25;;
38399;SDS011;24180;42.676;23.320;2022-08-20T01:03:00;10.57;;;9.57;;
38399;SDS011;24180;42.676;23.320;2022-08-20T01:05:26;10.70;;;9.77;;
38399;SDS011;24180;42.676;23.320;2022-08-20T01:07:52;13.18;;;10.90;;
38399;SDS011;24180;42.676;23.320;2022-08-20T01:10:20;11.07;;;10.07;;
38399;SDS011;24180;42.676;23.320;2022-08-20T01:12:50;11.30;;;9.75;;
38399;SDS011;24180;42.676;23.320;2022-08-20T01:15:18;9.93;;;9.02;;
38399;SDS011;24180;42.676;23.320;2022-08-20T01:17:48;8.93;;;8.05;;
38399;SDS011;24180;42.676;23.320;2022-08-20T01:20:29;9.85;;;8.93;;
38399;SDS011;24180;42.676;23.320;2022-08-20T01:23:05;9.60;;;8.80;;
38399;SDS011;24180;42.676;23.320;2022-08-20T01:31:10;10.00;;;9.00;;
38399;SDS011;24180;42.676;23.320;2022-08-20T01:33:38;12.68;;;9.27;;
38399;SDS011;24180;42.676;23.320;2022-08-20T01:36:04;10.10;;;9.27;;
38399;SDS011;24180;42.676;23.320;2022-08-20T01:38:31;9.15;;;8.25;;
38399;SDS011;24180;42.676;23.320;2022-08-20T01:43:40;11.18;;;10.27;;
38399;SDS011;24180;42.676;23.320;2022-08-20T01:46:09;12.00;;;10.77;;
38399;SDS011;24180;42.676;23.320;2022-08-20T01:48:38;11.45;;;10.30;;
38399;SDS011;24180;42.676;23.320;2022-08-20T01:51:09;11.32;;;10.30;;
38399;SDS011;24180;42.676;23.320;2022-08-20T01:53:42;11.23;;;10.15;;
38399;SDS011;24180;42.676;23.320;2022-08-20T01:56:11;11.52;;;10.45;;
38399;SDS011;24180;42.676;23.320;2022-08-20T01:58:40;10.95;;;9.95;;
38399;SDS011;24180;42.676;23.320;2022-08-20T02:04:05;12.48;;;9.10;;
38399;SDS011;24180;42.676;23.320;2022-08-20T02:06:33;10.15;;;9.18;;
38399;SDS011;24180;42.676;23.320;2022-08-20T02:09:01;10.73;;;9.18;;
38399;SDS011;24180;42.676;23.320;2022-08-20T02:11:29;9.57;;;8.77;;
38399;SDS011;24180;42.676;23.320;2022-08-20T02:13:56;9.90;;;8.93;;
38399;SDS011;24180;42.676;23.320;2022-08-20T02:16:23;10.68;;;8.68;;
38399;SDS011;24180;42.676;23.320;2022-08-20T02:18:55;10.30;;;9.32;;
38399;SDS011;24180;42.676;23.320;2022-08-20T02:21:24;14.93;;;10.00;;
38399;SDS011;24180;42.676;23.320;2022-08-20T02:23:53;11.75;;;10.57;;
38399;SDS011;24180;42.676;23.320;2022-08-20T02:26:19;11.52;;;10.43;;
38399;SDS011;24180;42.676;23.320;2022-08-20T02:28:46;10.90;;;9.80;;
38399;SDS011;24180;42.676;23.320;2022-08-20T02:31:13;10.60;;;9.70;;
38399;SDS011;24180;42.676;23.320;2022-08-20T02:33:39;10.15;;;9.35;;
38399;SDS011;24180;42.676;23.320;2022-08-20T02:36:05;10.10;;;9.13;;
38399;SDS011;24180;42.676;23.320;2022-08-20T02:38:31;11.98;;;9.65;;
38399;SDS011;24180;42.676;23.320;2022-08-20T02:40:59;10.15;;;8.95;;
38399;SDS011;24180;42.676;23.320;2022-08-20T02:43:26;9.82;;;8.80;;
38399;SDS011;24180;42.676;23.320;2022-08-20T02:45:51;10.55;;;9.65;;
38399;SDS011;24180;42.676;23.320;2022-08-20T02:48:18;10.93;;;8.98;;
38399;SDS011;24180;42.676;23.320;2022-08-20T02:50:46;12.20;;;9.80;;
38399;SDS011;24180;42.676;23.320;2022-08-20T02:53:14;10.23;;;9.43;;
38399;SDS011;24180;42.676;23.320;2022-08-20T02:55:40;11.13;;;10.07;;
38399;SDS011;24180;42.676;23.320;2022-08-20T02:58:07;10.90;;;9.77;;
38399;SDS011;24180;42.676;23.320;2022-08-20T03:00:33;10.95;;;9.82;;
38399;SDS011;24180;42.676;23.320;2022-08-20T03:02:59;10.80;;;9.90;;
38399;SDS011;24180;42.676;23.320;2022-08-20T03:05:25;10.60;;;9.70;;
38399;SDS011;24180;42.676;23.320;2022-08-20T03:07:51;11.20;;;10.10;;
38399;SDS011;24180;42.676;23.320;2022-08-20T03:10:20;11.68;;;10.50;;
38399;SDS011;24180;42.676;23.320;2022-08-20T03:15:58;10.93;;;9.90;;
38399;SDS011;24180;42.676;23.320;2022-08-20T03:18:30;15.10;;;13.60;;
38399;SDS011;24180;42.676;23.320;2022-08-20T03:21:07;16.83;;;15.30;;
38399;SDS011;24180;42.676;23.320;2022-08-20T03:23:37;13.73;;;12.43;;
38399;SDS011;24180;42.676;23.320;2022-08-20T03:29:17;14.95;;;11.68;;
38399;SDS011;24180;42.676;23.320;2022-08-20T03:31:44;12.98;;;11.77;;
38399;SDS011;24180;42.676;23.320;2022-08-20T03:34:09;12.93;;;11.73;;
38399;SDS011;24180;42.676;23.320;2022-08-20T03:39:21;12.07;;;10.20;;
38399;SDS011;24180;42.676;23.320;2022-08-20T03:45:17;12.95;;;10.55;;
38399;SDS011;24180;42.676;23.320;2022-08-20T03:47:49;11.20;;;10.10;;
38399;SDS011;24180;42.676;23.320;2022-08-20T03:50:18;10.60;;;9.60;;
38399;SDS011;24180;42.676;23.320;2022-08-20T03:52:45;11.63;;;10.63;;
38399;SDS011;24180;42.676;23.320;2022-08-20T03:55:14;13.23;;;11.90;;
38399;SDS011;24180;42.676;23.320;2022-08-20T03:57:46;13.40;;;12.30;;
38399;SDS011;24180;42.676;23.320;2022-08-20T04:00:21;14.53;;;12.47;;
38399;SDS011;24180;42.676;23.320;2022-08-20T04:03:07;13.65;;;12.23;;
38399;SDS011;24180;42.676;23.320;2022-08-20T04:05:35;14.00;;;12.70;;
38399;SDS011;24180;42.676;23.320;2022-08-20T04:08:12;13.87;;;12.57;;
38399;SDS011;24180;42.676;23.320;2022-08-20T04:10:44;17.10;;;15.53;;
38399;SDS011;24180;42.676;23.320;2022-08-20T04:13:11;16.53;;;15.13;;
38399;SDS011;24180;42.676;23.320;2022-08-20T04:15:43;14.85;;;13.63;;
38399;SDS011;24180;42.676;23.320;2022-08-20T04:18:13;13.40;;;12.40;;
38399;SDS011;24180;42.676;23.320;2022-08-20T04:20:45;12.48;;;11.57;;
38399;SDS011;24180;42.676;23.320;2022-08-20T04:23:17;14.07;;;12.02;;
38399;SDS011;24180;42.676;23.320;2022-08-20T04:25:43;13.13;;;11.80;;
38399;SDS011;24180;42.676;23.320;2022-08-20T04:28:25;14.93;;;11.45;;
38399;SDS011;24180;42.676;23.320;2022-08-20T04:31:04;15.18;;;11.50;;
38399;SDS011;24180;42.676;23.320;2022-08-20T04:36:46;12.75;;;11.50;;
38399;SDS011;24180;42.676;23.320;2022-08-20T04:39:17;14.02;;;12.85;;
38399;SDS011;24180;42.676;23.320;2022-08-20T04:41:44;13.88;;;12.45;;
38399;SDS011;24180;42.676;23.320;2022-08-20T04:44:18;14.87;;;12.60;;
38399;SDS011;24180;42.676;23.320;2022-08-20T04:50:13;12.20;;;11.05;;
38399;SDS011;24180;42.676;23.320;2022-08-20T04:58:14;12.27;;;11.25;;
38399;SDS011;24180;42.676;23.320;2022-08-20T05:00:46;13.82;;;12.32;;
38399;SDS011;24180;42.676;23.320;2022-08-20T05:03:18;14.65;;;12.95;;
38399;SDS011;24180;42.676;23.320;2022-08-20T05:05:53;14.45;;;13.35;;
38399;SDS011;24180;42.676;23.320;2022-08-20T05:08:26;16.90;;;15.40;;
38399;SDS011;24180;42.676;23.320;2022-08-20T05:10:54;18.95;;;17.40;;
38399;SDS011;24180;42.676;23.320;2022-08-20T05:13:20;13.93;;;11.95;;
38399;SDS011;24180;42.676;23.320;2022-08-20T05:15:45;17.25;;;11.25;;
38399;SDS011;24180;42.676;23.320;2022-08-20T05:18:16;12.20;;;10.40;;
38399;SDS011;24180;42.676;23.320;2022-08-20T05:20:44;11.85;;;10.75;;
38399;SDS011;24180;42.676;23.320;2022-08-20T05:23:31;13.60;;;10.82;;
38399;SDS011;24180;42.676;23.320;2022-08-20T05:26:08;13.57;;;12.18;;
38399;SDS011;24180;42.676;23.320;2022-08-20T05:28:36;13.00;;;11.80;;
38399;SDS011;24180;42.676;23.320;2022-08-20T05:34:01;12.70;;;11.52;;
38399;SDS011;24180;42.676;23.320;2022-08-20T05:36:35;11.95;;;10.85;;
38399;SDS011;24180;42.676;23.320;2022-08-20T05:39:13;13.48;;;11.13;;
38399;SDS011;24180;42.676;23.320;2022-08-20T05:41:41;12.05;;;10.95;;
38399;SDS011;24180;42.676;23.320;2022-08-20T05:44:10;11.27;;;10.25;;
38399;SDS011;24180;42.676;23.320;2022-08-20T05:46:43;12.98;;;11.57;;
38399;SDS011;24180;42.676;23.320;2022-08-20T05:49:12;16.80;;;13.27;;
38399;SDS011;24180;42.676;23.320;2022-08-20T05:54:37;15.82;;;14.48;;
38399;SDS011;24180;42.676;23.320;2022-08-20T05:59:52;30.92;;;28.55;;
38399;SDS011;24180;42.676;23.320;2022-08-20T06:05:30;25.25;;;23.15;;
38399;SDS011;24180;42.676;23.320;2022-08-20T06:08:08;13.20;;;11.80;;
38399;SDS011;24180;42.676;23.320;2022-08-20T06:10:35;16.30;;;11.50;;
38399;SDS011;24180;42.676;23.320;2022-08-20T06:13:02;15.05;;;13.60;;
38399;SDS011;24180;42.676;23.320;2022-08-20T06:15:46;16.17;;;14.80;;
38399;SDS011;24180;42.676;23.320;2022-08-20T06:18:16;18.65;;;15.45;;
38399;SDS011;24180;42.676;23.320;2022-08-20T06:20:47;14.27;;;12.82;;
38399;SDS011;24180;42.676;23.320;2022-08-20T06:23:16;15.35;;;14.02;;
38399;SDS011;24180;42.676;23.320;2022-08-20T06:26:00;17.95;;;15.15;;
38399;SDS011;24180;42.676;23.320;2022-08-20T06:28:26;13.95;;;12.65;;
38399;SDS011;24180;42.676;23.320;2022-08-20T06:30:51;17.92;;;16.50;;
38399;SDS011;24180;42.676;23.320;2022-08-20T06:33:17;14.07;;;12.98;;
38399;SDS011;24180;42.676;23.320;2022-08-20T06:35:44;21.17;;;14.68;;
38399;SDS011;24180;42.676;23.320;2022-08-20T06:38:10;17.67;;;16.05;;
38399;SDS011;24180;42.676;23.320;2022-08-20T06:40:37;14.68;;;12.30;;
38399;SDS011;24180;42.676;23.320;2022-08-20T06:43:03;19.40;;;17.65;;
38399;SDS011;24180;42.676;23.320;2022-08-20T06:45:30;19.40;;;17.92;;
38399;SDS011;24180;42.676;23.320;2022-08-20T06:47:58;12.95;;;10.32;;
38399;SDS011;24180;42.676;23.320;2022-08-20T06:50:32;30.38;;;28.17;;
38399;SDS011;24180;42.676;23.320;2022-08-20T06:53:05;17.15;;;15.27;;
38399;SDS011;24180;42.676;23.320;2022-08-20T06:55:31;17.15;;;14.63;;
38399;SDS011;24180;42.676;23.320;2022-08-20T06:58:04;28.38;;;26.02;;
38399;SDS011;24180;42.676;23.320;2022-08-20T07:00:32;24.65;;;22.42;;
38399;SDS011;24180;42.676;23.320;2022-08-20T07:02:59;21.80;;;20.17;;
38399;SDS011;24180;42.676;23.320;2022-08-20T07:05:31;16.38;;;14.80;;
38399;SDS011;24180;42.676;23.320;2022-08-20T07:08:00;14.60;;;11.93;;
38399;SDS011;24180;42.676;23.320;2022-08-20T07:10:26;13.60;;;11.93;;
38399;SDS011;24180;42.676;23.320;2022-08-20T07:12:52;19.35;;;17.60;;
38399;SDS011;24180;42.676;23.320;2022-08-20T07:15:20;13.07;;;11.20;;
38399;SDS011;24180;42.676;23.320;2022-08-20T07:17:57;16.52;;;14.93;;
38399;SDS011;24180;42.676;23.320;2022-08-20T07:20:25;18.73;;;16.83;;
38399;SDS011;24180;42.676;23.320;2022-08-20T07:22:53;17.25;;;15.65;;
38399;SDS011;24180;42.676;23.320;2022-08-20T07:25:20;13.93;;;12.55;;
38399;SDS011;24180;42.676;23.320;2022-08-20T07:27:46;12.00;;;10.43;;
38399;SDS011;24180;42.676;23.320;2022-08-20T07:30:18;13.48;;;10.18;;
38399;SDS011;24180;42.676;23.320;2022-08-20T07:33:05;12.27;;;10.82;;
38399;SDS011;24180;42.676;23.320;2022-08-20T07:35:31;12.18;;;11.07;;
38399;SDS011;24180;42.676;23.320;2022-08-20T07:37:56;12.23;;;10.35;;
38399;SDS011;24180;42.676;23.320;2022-08-20T07:40:23;12.60;;;10.57;;
38399;SDS011;24180;42.676;23.320;2022-08-20T07:42:55;11.73;;;10.40;;
38399;SDS011;24180;42.676;23.320;2022-08-20T07:45:24;16.55;;;10.68;;
38399;SDS011;24180;42.676;23.320;2022-08-20T07:47:49;15.43;;;14.07;;
38399;SDS011;24180;42.676;23.320;2022-08-20T07:50:19;13.23;;;11.55;;
38399;SDS011;24180;42.676;23.320;2022-08-20T07:52:51;14.60;;;13.10;;
38399;SDS011;24180;42.676;23.320;2022-08-20T07:55:23;12.27;;;10.30;;
38399;SDS011;24180;42.676;23.320;2022-08-20T07:57:49;15.18;;;11.63;;
38399;SDS011;24180;42.676;23.320;2022-08-20T08:03:37;14.80;;;13.60;;
38399;SDS011;24180;42.676;23.320;2022-08-20T08:06:03;12.73;;;11.38;;
38399;SDS011;24180;42.676;23.320;2022-08-20T08:08:30;12.02;;;10.85;;
38399;SDS011;24180;42.676;23.320;2022-08-20T08:10:58;11.68;;;10.48;;
38399;SDS011;24180;42.676;23.320;2022-08-20T08:13:27;15.98;;;14.23;;
38399;SDS011;24180;42.676;23.320;2022-08-20T08:15:56;13.30;;;11.65;;
38399;SDS011;24180;42.676;23.320;2022-08-20T08:18:32;11.38;;;9.70;;
38399;SDS011;24180;42.676;23.320;2022-08-20T08:21:06;14.25;;;13.10;;
38399;SDS011;24180;42.676;23.320;2022-08-20T08:23:32;16.80;;;14.30;;
38399;SDS011;24180;42.676;23.320;2022-08-20T08:26:00;13.93;;;12.77;;
38399;SDS011;24180;42.676;23.320;2022-08-20T08:28:28;24.15;;;16.17;;
38399;SDS011;24180;42.676;23.320;2022-08-20T08:30:54;14.05;;;12.55;;
38399;SDS011;24180;42.676;23.320;2022-08-20T08:33:22;24.65;;;22.45;;
38399;SDS011;24180;42.676;23.320;2022-08-20T08:36:11;20.67;;;18.90;;
38399;SDS011;24180;42.676;23.320;2022-08-20T08:38:39;12.98;;;11.48;;
38399;SDS011;24180;42.676;23.320;2022-08-20T08:41:15;17.40;;;16.00;;
38399;SDS011;24180;42.676;23.320;2022-08-20T08:43:47;12.13;;;10.90;;
38399;SDS011;24180;42.676;23.320;2022-08-20T08:46:18;11.68;;;10.68;;
38399;SDS011;24180;42.676;23.320;2022-08-20T08:48:48;11.73;;;10.48;;
38399;SDS011;24180;42.676;23.320;2022-08-20T08:51:21;11.60;;;10.38;;
38399;SDS011;24180;42.676;23.320;2022-08-20T08:53:59;12.65;;;10.80;;
38399;SDS011;24180;42.676;23.320;2022-08-20T08:56:27;14.10;;;11.05;;
38399;SDS011;24180;42.676;23.320;2022-08-20T08:58:57;12.43;;;11.15;;
38399;SDS011;24180;42.676;23.320;2022-08-20T09:01:26;11.73;;;10.55;;
38399;SDS011;24180;42.676;23.320;2022-08-20T09:03:53;10.73;;;9.63;;
38399;SDS011;24180;42.676;23.320;2022-08-20T09:06:20;11.73;;;10.73;;
38399;SDS011;24180;42.676;23.320;2022-08-20T09:08:50;15.93;;;12.02;;
38399;SDS011;24180;42.676;23.320;2022-08-20T09:11:20;11.63;;;10.43;;
38399;SDS011;24180;42.676;23.320;2022-08-20T09:13:48;11.35;;;10.40;;
38399;SDS011;24180;42.676;23.320;2022-08-20T09:16:14;11.20;;;10.30;;
38399;SDS011;24180;42.676;23.320;2022-08-20T09:18:41;15.07;;;13.00;;
38399;SDS011;24180;42.676;23.320;2022-08-20T09:21:07;11.18;;;10.27;;
38399;SDS011;24180;42.676;23.320;2022-08-20T09:23:36;10.93;;;10.13;;
38399;SDS011;24180;42.676;23.320;2022-08-20T09:26:02;11.73;;;10.60;;
38399;SDS011;24180;42.676;23.320;2022-08-20T09:28:28;15.00;;;13.57;;
38399;SDS011;24180;42.676;23.320;2022-08-20T09:30:53;11.02;;;9.93;;
38399;SDS011;24180;42.676;23.320;2022-08-20T09:33:19;15.30;;;14.20;;
38399;SDS011;24180;42.676;23.320;2022-08-20T09:35:44;10.52;;;9.52;;
38399;SDS011;24180;42.676;23.320;2022-08-20T09:38:10;22.90;;;21.20;;
38399;SDS011;24180;42.676;23.320;2022-08-20T09:40:37;27.15;;;25.10;;
38399;SDS011;24180;42.676;23.320;2022-08-20T09:43:06;13.02;;;12.15;;
38399;SDS011;24180;42.676;23.320;2022-08-20T09:45:34;20.48;;;18.33;;
38399;SDS011;24180;42.676;23.320;2022-08-20T09:48:00;11.20;;;10.18;;
38399;SDS011;24180;42.676;23.320;2022-08-20T09:50:26;14.18;;;13.00;;
38399;SDS011;24180;42.676;23.320;2022-08-20T09:52:53;10.85;;;9.68;;
38399;SDS011;24180;42.676;23.320;2022-08-20T09:55:38;13.93;;;12.73;;
38399;SDS011;24180;42.676;23.320;2022-08-20T09:58:08;17.48;;;16.20;;
38399;SDS011;24180;42.676;23.320;2022-08-20T10:00:43;12.13;;;10.95;;
38399;SDS011;24180;42.676;23.320;2022-08-20T10:03:09;16.35;;;13.68;;
38399;SDS011;24180;42.676;23.320;2022-08-20T10:05:34;16.00;;;14.68;;
38399;SDS011;24180;42.676;23.320;2022-08-20T10:08:01;12.20;;;11.02;;
38399;SDS011;24180;42.676;23.320;2022-08-20T10:10:29;9.75;;;8.95;;
38399;SDS011;24180;42.676;23.320;2022-08-20T10:12:56;13.18;;;11.90;;
38399;SDS011;24180;42.676;23.320;2022-08-20T10:15:21;13.38;;;12.15;;
38399;SDS011;24180;42.676;23.320;2022-08-20T10:17:47;10.75;;;9.75;;
38399;SDS011;24180;42.676;23.320;2022-08-20T10:20:13;15.45;;;14.15;;
38399;SDS011;24180;42.676;23.320;2022-08-20T10:22:39;10.75;;;10.05;;
38399;SDS011;24180;42.676;23.320;2022-08-20T10:25:05;11.25;;;10.20;;
38399;SDS011;24180;42.676;23.320;2022-08-20T10:27:32;13.50;;;12.40;;
38399;SDS011;24180;42.676;23.320;2022-08-20T10:29:58;16.13;;;14.95;;
38399;SDS011;24180;42.676;23.320;2022-08-20T10:32:24;12.95;;;11.48;;
38399;SDS011;24180;42.676;23.320;2022-08-20T10:34:50;9.40;;;8.48;;
38399;SDS011;24180;42.676;23.320;2022-08-20T10:37:16;9.82;;;8.38;;
38399;SDS011;24180;42.676;23.320;2022-08-20T10:39:44;9.02;;;8.05;;
38399;SDS011;24180;42.676;23.320;2022-08-20T10:42:11;11.32;;;9.95;;
38399;SDS011;24180;42.676;23.320;2022-08-20T10:44:37;9.98;;;8.82;;
38399;SDS011;24180;42.676;23.320;2022-08-20T10:47:25;9.32;;;8.52;;
38399;SDS011;24180;42.676;23.320;2022-08-20T10:49:52;9.82;;;8.93;;
38399;SDS011;24180;42.676;23.320;2022-08-20T10:52:19;9.68;;;8.90;;
38399;SDS011;24180;42.676;23.320;2022-08-20T10:54:46;9.30;;;8.57;;
38399;SDS011;24180;42.676;23.320;2022-08-20T10:57:15;10.82;;;9.90;;
38399;SDS011;24180;42.676;23.320;2022-08-20T10:59:44;8.68;;;7.90;;
38399;SDS011;24180;42.676;23.320;2022-08-20T11:02:11;9.50;;;8.63;;
38399;SDS011;24180;42.676;23.320;2022-08-20T11:04:39;9.18;;;8.27;;
38399;SDS011;24180;42.676;23.320;2022-08-20T11:09:36;9.98;;;8.38;;
38399;SDS011;24180;42.676;23.320;2022-08-20T11:12:02;9.70;;;8.80;;
38399;SDS011;24180;42.676;23.320;2022-08-20T11:14:34;11.57;;;9.40;;
38399;SDS011;24180;42.676;23.320;2022-08-20T11:17:00;9.55;;;8.75;;
38399;SDS011;24180;42.676;23.320;2022-08-20T11:19:26;9.35;;;8.65;;
38399;SDS011;24180;42.676;23.320;2022-08-20T11:21:52;9.48;;;8.63;;
38399;SDS011;24180;42.676;23.320;2022-08-20T11:24:18;9.63;;;8.73;;
38399;SDS011;24180;42.676;23.320;2022-08-20T11:26:44;8.75;;;8.05;;
38399;SDS011;24180;42.676;23.320;2022-08-20T11:29:13;9.02;;;8.35;;
38399;SDS011;24180;42.676;23.320;2022-08-20T11:31:44;11.23;;;10.20;;
38399;SDS011;24180;42.676;23.320;2022-08-20T11:34:12;11.68;;;10.77;;
38399;SDS011;24180;42.676;23.320;2022-08-20T11:36:38;14.73;;;13.68;;
38399;SDS011;24180;42.676;23.320;2022-08-20T11:39:10;9.77;;;8.73;;
38399;SDS011;24180;42.676;23.320;2022-08-20T11:41:39;12.90;;;11.70;;
38399;SDS011;24180;42.676;23.320;2022-08-20T11:44:05;14.45;;;13.13;;
38399;SDS011;24180;42.676;23.320;2022-08-20T11:46:30;9.85;;;9.15;;
38399;SDS011;24180;42.676;23.320;2022-08-20T11:49:01;13.32;;;12.25;;
38399;SDS011;24180;42.676;23.320;2022-08-20T11:51:26;13.27;;;11.90;;
38399;SDS011;24180;42.676;23.320;2022-08-20T11:53:58;12.52;;;11.60;;
38399;SDS011;24180;42.676;23.320;2022-08-20T11:56:23;15.52;;;14.52;;
38399;SDS011;24180;42.676;23.320;2022-08-20T11:58:49;14.27;;;13.13;;
38399;SDS011;24180;42.676;23.320;2022-08-20T12:01:16;10.77;;;9.88;;
38399;SDS011;24180;42.676;23.320;2022-08-20T12:03:54;10.85;;;10.02;;
38399;SDS011;24180;42.676;23.320;2022-08-20T12:06:21;10.68;;;9.57;;
38399;SDS011;24180;42.676;23.320;2022-08-20T12:08:46;11.23;;;10.13;;
38399;SDS011;24180;42.676;23.320;2022-08-20T12:11:12;12.27;;;11.07;;
38399;SDS011;24180;42.676;23.320;2022-08-20T12:13:38;14.95;;;13.63;;
38399;SDS011;24180;42.676;23.320;2022-08-20T12:16:05;21.35;;;19.75;;
38399;SDS011;24180;42.676;23.320;2022-08-20T12:18:30;12.77;;;11.80;;
38399;SDS011;24180;42.676;23.320;2022-08-20T12:20:56;32.95;;;31.05;;
38399;SDS011;24180;42.676;23.320;2022-08-20T12:23:27;43.10;;;40.38;;
38399;SDS011;24180;42.676;23.320;2022-08-20T12:25:53;10.82;;;9.75;;
38399;SDS011;24180;42.676;23.320;2022-08-20T12:28:20;10.65;;;9.30;;
38399;SDS011;24180;42.676;23.320;2022-08-20T12:30:47;12.13;;;11.23;;
38399;SDS011;24180;42.676;23.320;2022-08-20T12:33:13;45.17;;;26.30;;
38399;SDS011;24180;42.676;23.320;2022-08-20T12:35:38;16.10;;;11.65;;
38399;SDS011;24180;42.676;23.320;2022-08-20T12:38:04;30.83;;;28.27;;
38399;SDS011;24180;42.676;23.320;2022-08-20T12:40:32;18.10;;;16.17;;
38399;SDS011;24180;42.676;23.320;2022-08-20T12:46:12;29.80;;;16.70;;
38399;SDS011;24180;42.676;23.320;2022-08-20T12:48:37;37.55;;;34.17;;
38399;SDS011;24180;42.676;23.320;2022-08-20T12:51:03;41.05;;;37.35;;
38399;SDS011;24180;42.676;23.320;2022-08-20T12:53:28;74.68;;;68.38;;
38399;SDS011;24180;42.676;23.320;2022-08-20T12:55:54;113.00;;;103.63;;
38399;SDS011;24180;42.676;23.320;2022-08-20T12:58:19;63.35;;;56.88;;
38399;SDS011;24180;42.676;23.320;2022-08-20T13:00:45;27.27;;;22.60;;
38399;SDS011;24180;42.676;23.320;2022-08-20T13:03:12;31.98;;;27.13;;
38399;SDS011;24180;42.676;23.320;2022-08-20T13:05:59;33.47;;;25.33;;
38399;SDS011;24180;42.676;23.320;2022-08-20T13:08:25;29.42;;;23.90;;
38399;SDS011;24180;42.676;23.320;2022-08-20T13:10:50;25.55;;;22.95;;
38399;SDS011;24180;42.676;23.320;2022-08-20T13:13:17;23.05;;;20.60;;
38399;SDS011;24180;42.676;23.320;2022-08-20T13:15:43;29.40;;;26.02;;
38399;SDS011;24180;42.676;23.320;2022-08-20T13:18:08;22.73;;;18.25;;
38399;SDS011;24180;42.676;23.320;2022-08-20T13:20:34;20.10;;;18.08;;
38399;SDS011;24180;42.676;23.320;2022-08-20T13:23:01;19.92;;;15.85;;
38399;SDS011;24180;42.676;23.320;2022-08-20T13:25:28;17.75;;;16.15;;
38399;SDS011;24180;42.676;23.320;2022-08-20T13:27:57;18.55;;;15.02;;
38399;SDS011;24180;42.676;23.320;2022-08-20T13:30:24;17.15;;;15.00;;
38399;SDS011;24180;42.676;23.320;2022-08-20T13:32:52;19.58;;;14.98;;
38399;SDS011;24180;42.676;23.320;2022-08-20T13:35:20;17.48;;;15.45;;
38399;SDS011;24180;42.676;23.320;2022-08-20T13:37:49;19.30;;;15.45;;
38399;SDS011;24180;42.676;23.320;2022-08-20T13:40:15;17.98;;;16.17;;
38399;SDS011;24180;42.676;23.320;2022-08-20T13:42:41;19.73;;;14.27;;
38399;SDS011;24180;42.676;23.320;2022-08-20T13:45:07;22.85;;;16.35;;
38399;SDS011;24180;42.676;23.320;2022-08-20T13:47:34;18.85;;;17.00;;
38399;SDS011;24180;42.676;23.320;2022-08-20T13:50:10;19.52;;;16.23;;
38399;SDS011;24180;42.676;23.320;2022-08-20T13:52:42;18.38;;;16.67;;
38399;SDS011;24180;42.676;23.320;2022-08-20T13:55:09;20.42;;;18.52;;
38399;SDS011;24180;42.676;23.320;2022-08-20T13:57:36;26.33;;;24.00;;
38399;SDS011;24180;42.676;23.320;2022-08-20T14:00:03;18.52;;;16.30;;
38399;SDS011;24180;42.676;23.320;2022-08-20T14:02:32;20.05;;;17.30;;
38399;SDS011;24180;42.676;23.320;2022-08-20T14:04:58;18.77;;;16.95;;
38399;SDS011;24180;42.676;23.320;2022-08-20T14:07:26;21.17;;;19.15;;
38399;SDS011;24180;42.676;23.320;2022-08-20T14:09:56;20.57;;;18.50;;
38399;SDS011;24180;42.676;23.320;2022-08-20T14:12:28;21.73;;;19.50;;
38399;SDS011;24180;42.676;23.320;2022-08-20T14:14:54;22.50;;;20.40;;
38399;SDS011;24180;42.676;23.320;2022-08-20T14:17:23;20.20;;;18.23;;
38399;SDS011;24180;42.676;23.320;2022-08-20T14:19:55;21.40;;;19.50;;
38399;SDS011;24180;42.676;23.320;2022-08-20T14:22:25;22.10;;;19.97;;
38399;SDS011;24180;42.676;23.320;2022-08-20T14:24:51;24.17;;;21.70;;
38399;SDS011;24180;42.676;23.320;2022-08-20T14:27:18;25.50;;;22.00;;
38399;SDS011;24180;42.676;23.320;2022-08-20T14:29:45;24.10;;;21.83;;
38399;SDS011;24180;42.676;23.320;2022-08-20T14:32:12;24.10;;;21.63;;
38399;SDS011;24180;42.676;23.320;2022-08-20T14:34:38;24.73;;;22.30;;
38399;SDS011;24180;42.676;23.320;2022-08-20T14:37:18;24.67;;;22.37;;
38399;SDS011;24180;42.676;23.320;2022-08-20T14:39:44;23.80;;;21.43;;
38399;SDS011;24180;42.676;23.320;2022-08-20T14:42:14;22.87;;;20.87;;
38399;SDS011;24180;42.676;23.320;2022-08-20T14:44:40;29.80;;;27.07;;
38399;SDS011;24180;42.676;23.320;2022-08-20T14:47:16;26.67;;;24.00;;
38399;SDS011;24180;42.676;23.320;2022-08-20T14:49:51;26.60;;;23.87;;
38399;SDS011;24180;42.676;23.320;2022-08-20T14:52:20;28.80;;;26.17;;
38399;SDS011;24180;42.676;23.320;2022-08-20T14:54:47;28.87;;;24.70;;
38399;SDS011;24180;42.676;23.320;2022-08-20T14:57:13;29.73;;;26.53;;
38399;SDS011;24180;42.676;23.320;2022-08-20T14:59:40;33.30;;;28.63;;
38399;SDS011;24180;42.676;23.320;2022-08-20T15:02:07;33.13;;;29.63;;
38399;SDS011;24180;42.676;23.320;2022-08-20T15:04:34;37.63;;;29.97;;
38399;SDS011;24180;42.676;23.320;2022-08-20T15:07:02;34.43;;;30.90;;
38399;SDS011;24180;42.676;23.320;2022-08-20T15:09:31;31.03;;;28.03;;
38399;SDS011;24180;42.676;23.320;2022-08-20T15:11:58;31.50;;;28.43;;
38399;SDS011;24180;42.676;23.320;2022-08-20T15:14:23;27.27;;;24.67;;
38399;SDS011;24180;42.676;23.320;2022-08-20T15:16:50;29.13;;;26.30;;
38399;SDS011;24180;42.676;23.320;2022-08-20T15:22:38;26.00;;;23.30;;